메인 페이지
METAR-TAF:

METAR-TAF

공항 :

포트오브스페인, 트리니다드 섬, 트리니다드 토바고

위도: 10-37N, 경도: 061-21W, 고도: 12m

현재 날씨관측

예보는 28분 전, 13:41시(UTC)에 발표되었습니다.
동남동8kt
온도 27°C
습도 84%
기압 1015 hPa
시정 10km 이상
고도 1600ft 상공 구름 보통
고도 3800ft 상공 구름 보통
시계 내 소나기

METAR: TTPP 061341Z 11008KT 9999 VCSH SCT016 SCT038 27/24 Q1015 NOSIG

시각: 10:09 (14:09 UTC)

예보

예보는 4 시간 9분 전, 10:00시(UTC)에 발표되었습니다.
예보 대상 시간: 06일 12시부터 07일 12시까지 (UTC)
15kt
시정 10km 이상
고도 1800ft 상공 구름 보통
확률 40% :
일시적
06일 12시부터 06일 18시까지 (UTC)
15kt, 순간 최대 풍속 25kt
시정: 5000m
고도 1800ft 상공 구름 많음
고도 3800ft 상공 구름 많음
소나기
전환 중
07일 00시부터 07일 02시까지 (UTC)
5kt
고도 1600ft 상공 구름 조금

TAF: TTPP 061000Z 0612/0712 09015KT 9999 SCT018 PROB40 TEMPO 0612/0618 09015G25KT 5000 SHRA BKN018 BKN038 BECMG 0700/0702 09005KT FEW016

4,000개 이상의 공항 관측 자료 및 예보 (METAR 및 TAF 보고).

지도상에서 검색 가능한 기상관측소가 노란 점과 빨간 점으로 표시되어 있습니다.

기상관측소 명을 보려면 표시 위로 마우스를 이동하세요.

날씨 관측과 예보를 보려면 클릭하세요.

지도 변경 : 확대하려면 엑스 표시가 있는 녹색 버튼, 축소하려면 빼기 표시가 있는 녹색 버튼, 다음 페이지의 지도를 보려면 녹색 화살표를 클릭하세요.


METAR-TAF: